createdAt,value
2022-10-28T00:00:51.601Z,97.89
2022-10-28T00:01:54.329Z,98.64
2022-10-28T00:02:57.732Z,98.32
2022-10-28T00:04:01.252Z,98.19
2022-10-28T00:05:04.429Z,99.08
2022-10-28T00:06:07.096Z,99.42
2022-10-28T00:07:09.967Z,98.19
2022-10-28T00:08:12.748Z,97.56
2022-10-28T00:09:15.416Z,97.76
2022-10-28T00:10:18.283Z,97.76
2022-10-28T00:11:21.056Z,98.31
2022-10-28T00:12:24.203Z,98.44
2022-10-28T00:13:27.314Z,98.57
2022-10-28T00:14:29.889Z,97.50
2022-10-28T00:15:32.869Z,97.23
2022-10-28T00:16:35.645Z,98.87
2022-10-28T00:17:38.727Z,99.46
2022-10-28T00:18:41.387Z,99.46
2022-10-28T00:19:44.359Z,98.61
2022-10-28T00:20:47.450Z,98.27
2022-10-28T00:21:50.430Z,98.24
2022-10-28T00:22:53.331Z,97.95
2022-10-28T00:23:56.272Z,97.08
2022-10-28T00:24:59.561Z,97.73
2022-10-28T00:26:02.849Z,98.67
2022-10-28T00:27:05.932Z,97.27
2022-10-28T00:28:08.793Z,96.71
2022-10-28T00:29:11.571Z,97.50
2022-10-28T00:30:14.341Z,96.10
2022-10-28T00:31:17.636Z,97.32
2022-10-28T00:32:22.141Z,98.04
2022-10-28T00:33:25.420Z,98.32
2022-10-28T00:34:28.292Z,96.62
2022-10-28T00:35:31.073Z,97.79
2022-10-28T00:36:34.052Z,96.35
2022-10-28T00:37:36.819Z,96.58
2022-10-28T00:38:39.689Z,95.95
2022-10-28T00:39:42.573Z,96.22
2022-10-28T00:40:45.247Z,95.74
2022-10-28T00:41:48.535Z,95.16
2022-10-28T00:42:51.577Z,95.67
2022-10-28T00:43:54.898Z,95.39
2022-10-28T00:44:57.672Z,95.25
2022-10-28T00:46:00.665Z,94.89
2022-10-28T00:47:04.250Z,96.16
2022-10-28T00:48:07.007Z,94.18
2022-10-28T00:49:09.669Z,94.25
2022-10-28T00:50:12.535Z,95.06
2022-10-28T00:51:15.515Z,95.09
2022-10-28T00:52:19.000Z,94.81
2022-10-28T00:53:21.988Z,95.82
2022-10-28T00:54:24.758Z,95.17
2022-10-28T00:55:27.846Z,95.40
2022-10-28T00:56:30.831Z,94.87
2022-10-28T00:57:34.099Z,94.81
2022-10-28T00:58:37.069Z,95.06
2022-10-28T00:59:40.365Z,94.86
2022-10-28T01:00:43.845Z,94.59
2022-10-28T01:01:47.538Z,94.22
2022-10-28T01:02:51.133Z,93.59
2022-10-28T01:03:54.209Z,92.87
2022-10-28T01:04:57.392Z,91.42
2022-10-28T01:06:00.476Z,92.99
2022-10-28T01:07:03.570Z,93.08
2022-10-28T01:08:06.341Z,92.85
2022-10-28T01:09:09.094Z,92.14
2022-10-28T01:10:12.085Z,92.75
2022-10-28T01:11:15.058Z,92.64
2022-10-28T01:12:18.130Z,93.05
2022-10-28T01:13:21.005Z,92.30
2022-10-28T01:14:23.884Z,92.20
2022-10-28T01:15:26.966Z,92.95
2022-10-28T01:16:29.936Z,92.49
2022-10-28T01:17:33.012Z,92.64
2022-10-28T01:18:36.100Z,92.11
2022-10-28T01:19:39.283Z,91.58
2022-10-28T01:20:44.196Z,92.16
2022-10-28T01:21:46.773Z,91.94
2022-10-28T01:22:49.927Z,91.32
2022-10-28T01:23:53.027Z,91.46
2022-10-28T01:24:56.102Z,90.56
2022-10-28T01:25:59.792Z,90.94
2022-10-28T01:27:02.774Z,90.96
2022-10-28T01:28:05.659Z,90.70
2022-10-28T01:29:08.650Z,91.08
2022-10-28T01:30:11.603Z,92.11
2022-10-28T01:31:14.690Z,91.40
2022-10-28T01:32:17.659Z,91.75
2022-10-28T01:33:20.736Z,91.31
2022-10-28T01:34:24.341Z,91.74
2022-10-28T01:35:27.264Z,93.30
2022-10-28T01:36:30.281Z,91.68
2022-10-28T01:37:33.379Z,91.27
2022-10-28T01:38:36.347Z,91.20
2022-10-28T01:39:39.628Z,90.96
2022-10-28T01:40:42.929Z,92.22
2022-10-28T01:41:46.094Z,91.82
2022-10-28T01:42:49.287Z,89.79
2022-10-28T01:43:52.356Z,90.06
2022-10-28T01:44:55.639Z,89.59
2022-10-28T01:45:58.727Z,89.57
2022-10-28T01:47:01.896Z,90.44
2022-10-28T01:48:04.580Z,90.80
2022-10-28T01:49:07.969Z,89.11
2022-10-28T01:50:10.930Z,89.29
2022-10-28T01:51:14.221Z,89.94
2022-10-28T01:52:17.206Z,89.62
2022-10-28T01:53:20.207Z,89.70
2022-10-28T01:54:22.750Z,90.33
2022-10-28T01:55:25.614Z,89.43
2022-10-28T01:56:28.793Z,90.24
2022-10-28T01:57:32.527Z,92.19
2022-10-28T01:58:35.876Z,90.29
2022-10-28T01:59:39.773Z,89.51
2022-10-28T02:00:43.024Z,89.35
2022-10-28T02:01:46.582Z,90.16
2022-10-28T02:02:50.199Z,89.17
2022-10-28T02:03:53.333Z,88.89
2022-10-28T02:04:56.403Z,88.69
2022-10-28T02:06:00.096Z,89.87
2022-10-28T02:07:03.286Z,89.56
2022-10-28T02:08:06.463Z,89.75
2022-10-28T02:09:09.332Z,88.86
2022-10-28T02:10:12.214Z,88.88
2022-10-28T02:11:15.097Z,88.76
2022-10-28T02:12:18.160Z,88.72
2022-10-28T02:13:21.244Z,89.41
2022-10-28T02:14:24.119Z,89.32
2022-10-28T02:15:27.089Z,89.28
2022-10-28T02:16:30.383Z,89.01
2022-10-28T02:17:33.145Z,89.97
2022-10-28T02:18:36.639Z,88.98
2022-10-28T02:19:39.610Z,88.89
2022-10-28T02:20:42.500Z,91.00
2022-10-28T02:21:45.764Z,87.99
2022-10-28T02:22:48.755Z,88.92
2022-10-28T02:23:51.736Z,88.40
2022-10-28T02:24:55.323Z,88.76
2022-10-28T02:25:58.297Z,90.10
2022-10-28T02:27:01.676Z,87.97
2022-10-28T02:28:05.246Z,89.08
2022-10-28T02:29:08.254Z,89.18
2022-10-28T02:30:10.926Z,90.85
2022-10-28T02:31:13.802Z,90.26
2022-10-28T02:32:16.779Z,89.46
2022-10-28T02:34:36.243Z,89.22
2022-10-28T02:35:39.321Z,88.97
2022-10-28T02:37:59.715Z,89.50
2022-10-28T02:39:03.012Z,89.63
2022-10-28T02:41:21.756Z,88.44
2022-10-28T02:42:24.523Z,89.52
2022-10-28T02:44:43.789Z,88.73
2022-10-28T02:48:21.808Z,89.22
2022-10-28T02:49:25.094Z,88.95
2022-10-28T02:50:28.382Z,88.93
2022-10-28T02:51:31.368Z,89.68
2022-10-28T02:52:34.120Z,88.96
2022-10-28T02:53:37.002Z,88.79
2022-10-28T02:54:40.393Z,88.83
2022-10-28T02:55:43.467Z,88.97
2022-10-28T02:56:46.549Z,88.65
2022-10-28T02:57:49.519Z,88.93
2022-10-28T02:58:52.806Z,89.79
2022-10-28T02:59:56.093Z,89.20
2022-10-28T03:00:59.345Z,88.79
2022-10-28T03:02:02.462Z,89.42
2022-10-28T03:03:05.635Z,90.58
2022-10-28T03:04:08.820Z,91.53
2022-10-28T03:05:12.212Z,91.21
2022-10-28T03:06:15.020Z,91.34
2022-10-28T03:07:17.862Z,90.20
2022-10-28T03:08:20.825Z,90.53
2022-10-28T03:09:24.334Z,89.49
2022-10-28T03:10:30.358Z,90.10
2022-10-28T03:11:33.241Z,90.20
2022-10-28T03:12:36.430Z,90.10
2022-10-28T03:13:39.506Z,90.57
2022-10-28T03:14:42.681Z,89.75
2022-10-28T03:15:45.867Z,88.37
2022-10-28T03:16:48.843Z,88.66
2022-10-28T03:17:52.601Z,89.59
2022-10-28T03:18:55.874Z,89.06
2022-10-28T03:19:58.896Z,87.83
2022-10-28T03:21:02.192Z,88.75
2022-10-28T03:22:05.883Z,88.31
2022-10-28T03:23:09.673Z,89.07
2022-10-28T03:24:12.964Z,88.95
2022-10-28T03:25:16.859Z,89.17
2022-10-28T03:26:20.065Z,88.84
2022-10-28T03:27:23.135Z,89.03
2022-10-28T03:28:26.204Z,89.32
2022-10-28T03:29:28.871Z,89.34
2022-10-28T03:30:31.946Z,89.39
2022-10-28T03:31:34.931Z,88.22
2022-10-28T03:32:37.796Z,88.92
2022-10-28T03:33:40.674Z,88.47
2022-10-28T03:34:43.851Z,89.37
2022-10-28T03:35:46.740Z,89.12
2022-10-28T03:36:49.601Z,89.25
2022-10-28T03:37:52.279Z,88.82
2022-10-28T03:38:55.053Z,88.74
2022-10-28T03:39:57.825Z,90.41
2022-10-28T03:41:00.698Z,89.55
2022-10-28T03:42:03.663Z,88.43
2022-10-28T03:43:06.751Z,89.23
2022-10-28T03:44:09.623Z,89.38
2022-10-28T03:45:12.604Z,87.87
2022-10-28T03:46:15.685Z,88.83
2022-10-28T03:47:18.658Z,88.58
2022-10-28T03:48:21.529Z,87.92
2022-10-28T03:49:24.401Z,89.00
2022-10-28T03:50:27.504Z,89.87
2022-10-28T03:51:30.357Z,88.74
2022-10-28T03:52:33.246Z,88.63
2022-10-28T03:53:36.527Z,88.39
2022-10-28T03:54:39.292Z,89.05
2022-10-28T03:55:42.083Z,89.39
2022-10-28T03:56:45.139Z,87.99
2022-10-28T03:57:48.112Z,89.13
2022-10-28T03:59:54.407Z,89.26
2022-10-28T04:00:57.755Z,88.28
2022-10-28T04:02:00.968Z,88.60
2022-10-28T04:03:03.931Z,87.82
2022-10-28T04:04:06.692Z,87.96
2022-10-28T04:05:09.585Z,89.73
2022-10-28T04:06:12.450Z,89.87
2022-10-28T04:07:15.633Z,89.35
2022-10-28T04:08:19.125Z,88.69
2022-10-28T04:09:22.318Z,89.84
2022-10-28T04:10:25.701Z,88.58
2022-10-28T04:11:28.775Z,87.73
2022-10-28T04:12:32.060Z,87.46
2022-10-28T04:13:35.747Z,87.72
2022-10-28T04:14:38.833Z,87.91
2022-10-28T04:15:42.019Z,88.07
2022-10-28T04:16:45.205Z,87.65
2022-10-28T04:17:48.171Z,86.73
2022-10-28T04:18:51.358Z,87.33
2022-10-28T04:19:54.123Z,87.46
2022-10-28T04:20:57.001Z,87.66
2022-10-28T04:22:00.381Z,88.44
2022-10-28T04:23:04.075Z,87.64
2022-10-28T04:24:07.774Z,87.67
2022-10-28T04:25:10.689Z,87.38
2022-10-28T04:26:13.727Z,87.04
2022-10-28T04:27:16.801Z,86.32
2022-10-28T04:28:19.680Z,87.30
2022-10-28T04:29:27.160Z,86.84
2022-10-28T04:30:30.353Z,87.26
2022-10-28T04:31:33.420Z,86.81
2022-10-28T04:32:36.209Z,87.36
2022-10-28T04:33:39.107Z,86.96
2022-10-28T04:34:42.690Z,87.59
2022-10-28T04:35:45.941Z,87.14
2022-10-28T04:36:49.057Z,86.80
2022-10-28T04:37:52.543Z,86.37
2022-10-28T04:38:55.497Z,87.24
2022-10-28T04:39:58.474Z,87.44
2022-10-28T04:41:01.455Z,87.99
2022-10-28T04:42:04.217Z,86.78
2022-10-28T04:43:09.706Z,87.76
2022-10-28T04:44:11.606Z,87.19
2022-10-28T04:45:14.695Z,86.99
2022-10-28T04:46:17.564Z,87.02
2022-10-28T04:47:20.643Z,86.99
2022-10-28T04:48:23.607Z,86.99
2022-10-28T04:49:26.495Z,86.80
2022-10-28T04:50:29.362Z,86.95
2022-10-28T04:51:32.349Z,87.52
2022-10-28T04:52:35.424Z,87.91
2022-10-28T04:53:38.307Z,87.75
2022-10-28T04:54:41.174Z,87.97
2022-10-28T04:55:44.672Z,87.26
2022-10-28T04:56:47.847Z,87.91
2022-10-28T04:57:51.321Z,88.31
2022-10-28T04:58:54.107Z,88.01
2022-10-28T04:59:57.089Z,88.81
2022-10-28T05:01:00.188Z,87.82
2022-10-28T05:02:03.463Z,87.09
2022-10-28T05:03:06.733Z,88.15
2022-10-28T05:04:09.594Z,87.49
2022-10-28T05:05:12.755Z,87.32
2022-10-28T05:06:15.860Z,87.36
2022-10-28T05:07:21.382Z,87.53
2022-10-28T05:08:23.669Z,87.39
2022-10-28T05:09:26.339Z,87.47
2022-10-28T05:10:29.209Z,87.84
2022-10-28T05:11:32.197Z,88.57
2022-10-28T05:12:35.123Z,88.51
2022-10-28T05:13:38.040Z,87.85
2022-10-28T05:14:41.534Z,87.43
2022-10-28T05:15:45.024Z,88.04
2022-10-28T05:16:48.101Z,87.78
2022-10-28T05:17:51.494Z,88.09
2022-10-28T05:18:54.622Z,87.80
2022-10-28T05:19:57.847Z,88.84
2022-10-28T05:21:00.822Z,87.60
2022-10-28T05:22:04.109Z,87.91
2022-10-28T05:23:07.299Z,87.83
2022-10-28T05:24:10.271Z,87.61
2022-10-28T05:25:13.349Z,87.42
2022-10-28T05:26:16.431Z,87.48
2022-10-28T05:27:19.923Z,87.21
2022-10-28T05:28:23.623Z,88.12
2022-10-28T05:29:32.268Z,88.60
2022-10-28T05:30:31.513Z,87.37
2022-10-28T05:31:34.524Z,87.53
2022-10-28T05:32:37.473Z,88.32
2022-10-28T05:33:40.443Z,88.35
2022-10-28T05:34:43.315Z,87.70
2022-10-28T05:35:49.060Z,88.01
2022-10-28T05:36:52.869Z,89.03
2022-10-28T05:37:56.243Z,88.18
2022-10-28T05:38:59.212Z,87.92
2022-10-28T05:40:02.312Z,88.12
2022-10-28T05:41:05.293Z,88.15
2022-10-28T05:42:08.254Z,89.06
2022-10-28T05:43:12.363Z,88.44
2022-10-28T05:44:15.224Z,87.64
2022-10-28T05:45:18.509Z,88.22
2022-10-28T05:46:21.482Z,87.61
2022-10-28T05:47:24.592Z,87.69
2022-10-28T05:48:27.747Z,87.96
2022-10-28T05:49:31.873Z,87.80
2022-10-28T05:50:35.861Z,87.63
2022-10-28T05:51:39.127Z,87.44
2022-10-28T05:52:42.346Z,87.50
2022-10-28T05:53:46.321Z,87.40
2022-10-28T05:54:49.299Z,87.40
2022-10-28T05:55:53.195Z,87.34
2022-10-28T05:56:56.376Z,87.35
2022-10-28T05:58:00.176Z,87.77
2022-10-28T05:59:03.693Z,88.09
2022-10-28T06:00:06.840Z,88.32
2022-10-28T06:01:10.042Z,87.11
2022-10-28T06:02:13.627Z,86.81
2022-10-28T06:03:16.922Z,86.67
2022-10-28T06:04:19.987Z,86.99
2022-10-28T06:05:23.169Z,87.28
2022-10-28T06:06:28.104Z,86.89
2022-10-28T06:07:32.291Z,87.48
2022-10-28T06:08:35.271Z,87.16
2022-10-28T06:09:38.553Z,87.00
2022-10-28T06:10:41.637Z,86.79
2022-10-28T06:11:42.976Z,86.76
2022-10-28T06:12:46.786Z,87.29
2022-10-28T06:13:49.957Z,86.65
2022-10-28T06:14:53.143Z,87.07
2022-10-28T06:15:55.913Z,87.52
2022-10-28T06:18:22.380Z,87.15
2022-10-28T06:19:25.846Z,87.57
2022-10-28T06:20:29.454Z,86.49
2022-10-28T06:21:32.724Z,86.97
2022-10-28T06:22:36.630Z,87.11
2022-10-28T06:23:39.791Z,87.52
2022-10-28T06:24:42.990Z,87.53
2022-10-28T06:25:46.625Z,87.56
2022-10-28T06:26:49.868Z,87.51
2022-10-28T06:27:55.594Z,87.77
2022-10-28T06:28:59.241Z,87.69
2022-10-28T06:30:08.726Z,87.96
2022-10-28T06:31:12.023Z,88.13
2022-10-28T06:32:15.404Z,88.14
2022-10-28T06:33:19.497Z,87.76
2022-10-28T06:34:22.991Z,88.10
2022-10-28T06:35:26.501Z,88.28
2022-10-28T06:36:29.302Z,87.72
2022-10-28T06:37:33.042Z,88.42
2022-10-28T06:38:36.519Z,88.23
2022-10-28T06:39:40.003Z,88.23
2022-10-28T06:40:43.158Z,88.23
2022-10-28T06:41:49.977Z,88.25
2022-10-28T06:42:53.316Z,88.17
2022-10-28T06:43:56.654Z,88.24
2022-10-28T06:44:59.630Z,88.49
2022-10-28T06:46:05.079Z,88.48
2022-10-28T06:47:09.775Z,88.36
2022-10-28T06:48:12.705Z,88.36
2022-10-28T06:49:15.410Z,88.40
2022-10-28T06:50:18.305Z,88.39
2022-10-28T06:51:21.262Z,88.79
2022-10-28T06:52:24.460Z,88.63
2022-10-28T06:53:27.530Z,88.87
2022-10-28T06:54:30.725Z,88.77
2022-10-28T06:55:33.917Z,89.36
2022-10-28T06:56:36.563Z,89.55
2022-10-28T06:57:40.376Z,88.76
2022-10-28T06:58:43.641Z,88.59
2022-10-28T06:59:46.325Z,89.07
2022-10-28T07:00:49.341Z,89.30
2022-10-28T07:01:52.236Z,89.32
2022-10-28T07:02:56.120Z,88.59
2022-10-28T07:03:59.248Z,88.60
2022-10-28T07:05:02.334Z,88.64
2022-10-28T07:06:05.196Z,88.65
2022-10-28T07:07:07.977Z,88.36
2022-10-28T07:08:11.977Z,88.47
2022-10-28T07:09:15.299Z,89.24
2022-10-28T07:10:18.252Z,88.92
2022-10-28T07:11:23.885Z,88.16
2022-10-28T07:12:26.662Z,88.62
2022-10-28T07:13:29.963Z,87.91
2022-10-28T07:14:32.616Z,88.26
2022-10-28T07:15:35.387Z,88.24
2022-10-28T07:16:38.274Z,88.39
2022-10-28T07:17:48.049Z,88.63
2022-10-28T07:18:50.978Z,89.13
2022-10-28T07:19:54.276Z,88.27
2022-10-28T07:20:57.540Z,88.38
2022-10-28T07:22:00.933Z,88.44
2022-10-28T07:23:04.406Z,88.09
2022-10-28T07:24:07.912Z,88.33
2022-10-28T07:25:11.711Z,88.62
2022-10-28T07:26:15.108Z,88.74
2022-10-28T07:27:17.974Z,89.26
2022-10-28T07:28:20.843Z,89.00
2022-10-28T07:29:24.647Z,89.03
2022-10-28T07:30:38.537Z,88.77
2022-10-28T07:31:41.772Z,88.85
2022-10-28T07:32:44.955Z,89.12
2022-10-28T07:33:48.024Z,89.23
2022-10-28T07:34:51.106Z,89.70
2022-10-28T07:35:54.003Z,89.45
2022-10-28T07:36:59.530Z,90.09
2022-10-28T07:38:02.910Z,89.67
2022-10-28T07:39:06.546Z,89.85
2022-10-28T07:40:10.107Z,90.24
2022-10-28T07:41:13.793Z,90.02
2022-10-28T07:42:17.074Z,90.45
2022-10-28T07:43:20.465Z,90.15
2022-10-28T07:44:23.428Z,89.86
2022-10-28T07:45:29.066Z,90.18
2022-10-28T07:46:32.664Z,90.52
2022-10-28T07:47:36.781Z,90.69
2022-10-28T07:48:40.057Z,90.88
2022-10-28T07:49:44.252Z,91.72
2022-10-28T07:50:48.678Z,91.20
2022-10-28T07:51:54.313Z,91.45
2022-10-28T07:52:58.402Z,91.35
2022-10-28T07:54:01.282Z,91.42
2022-10-28T07:55:04.678Z,91.69
2022-10-28T07:56:08.302Z,91.78
2022-10-28T07:57:11.646Z,90.58
2022-10-28T07:58:14.524Z,90.02
2022-10-28T07:59:17.553Z,90.32
2022-10-28T08:00:20.670Z,90.13
2022-10-28T08:01:23.469Z,89.96
2022-10-28T08:02:26.437Z,90.34
2022-10-28T08:03:38.035Z,90.19
2022-10-28T08:04:34.426Z,90.38
2022-10-28T08:05:37.712Z,89.87
2022-10-28T08:06:40.925Z,89.72
2022-10-28T08:07:44.468Z,89.78
2022-10-28T08:08:47.765Z,89.70
2022-10-28T08:09:51.035Z,90.80
2022-10-28T08:10:54.949Z,90.16
2022-10-28T08:11:59.462Z,90.46
2022-10-28T08:13:02.806Z,90.40
2022-10-28T08:14:06.617Z,90.12
2022-10-28T08:15:10.357Z,90.53
2022-10-28T08:16:15.966Z,90.45
2022-10-28T08:17:19.366Z,90.70
2022-10-28T08:18:22.413Z,90.75
2022-10-28T08:19:25.390Z,90.87
2022-10-28T08:20:28.162Z,91.33
2022-10-28T08:21:31.061Z,91.25
2022-10-28T08:22:34.422Z,90.69
2022-10-28T08:23:38.948Z,90.66
2022-10-28T08:24:43.533Z,90.77
2022-10-28T08:25:47.036Z,91.25
2022-10-28T08:26:51.061Z,91.46
2022-10-28T08:27:54.420Z,90.95
2022-10-28T08:28:57.810Z,90.76
2022-10-28T08:30:01.192Z,90.96
2022-10-28T08:31:08.581Z,90.99
2022-10-28T08:32:09.661Z,91.16
2022-10-28T08:33:13.661Z,90.92
2022-10-28T08:34:16.900Z,91.09
2022-10-28T08:35:20.185Z,90.96
2022-10-28T08:36:24.497Z,91.49
2022-10-28T08:37:27.400Z,91.09
2022-10-28T08:38:30.738Z,91.51
2022-10-28T08:39:34.038Z,91.45
2022-10-28T08:40:38.038Z,91.64
2022-10-28T08:41:41.426Z,91.46
2022-10-28T08:42:44.515Z,91.81
2022-10-28T08:43:57.121Z,91.32
2022-10-28T08:44:52.921Z,91.32
2022-10-28T08:45:55.926Z,91.68
2022-10-28T08:46:59.682Z,91.92
2022-10-28T08:48:03.292Z,91.98
2022-10-28T08:49:07.666Z,91.69
2022-10-28T08:50:11.362Z,91.98
2022-10-28T08:51:15.364Z,92.17
2022-10-28T08:52:19.675Z,92.66
2022-10-28T08:53:23.285Z,92.51
2022-10-28T08:54:27.378Z,92.69
2022-10-28T08:55:31.070Z,91.98
2022-10-28T08:56:34.862Z,91.95
2022-10-28T08:57:38.463Z,92.26
2022-10-28T08:58:42.163Z,92.18
2022-10-28T08:59:53.213Z,92.40
2022-10-28T09:00:58.165Z,92.11
2022-10-28T09:02:01.521Z,92.61
2022-10-28T09:03:05.207Z,92.83
2022-10-28T09:04:08.916Z,92.72
2022-10-28T09:05:14.347Z,92.91
2022-10-28T09:06:17.839Z,92.59
2022-10-28T09:07:21.059Z,92.76
2022-10-28T09:08:26.569Z,92.88
2022-10-28T09:09:30.667Z,93.05
2022-10-28T09:10:35.270Z,93.58
2022-10-28T09:11:39.277Z,93.53
2022-10-28T09:12:46.375Z,93.70
2022-10-28T09:13:53.109Z,93.64
2022-10-28T09:14:56.599Z,93.97
2022-10-28T09:16:00.818Z,94.06
2022-10-28T09:17:04.503Z,94.03
2022-10-28T09:18:08.292Z,93.61
2022-10-28T09:19:11.880Z,93.78
2022-10-28T09:20:17.528Z,93.76
2022-10-28T09:21:21.225Z,94.23
2022-10-28T09:22:26.050Z,93.84
2022-10-28T09:23:30.052Z,93.63
2022-10-28T09:24:34.363Z,94.11
2022-10-28T09:25:38.353Z,93.94
2022-10-28T09:26:42.658Z,93.83
2022-10-28T09:27:46.978Z,93.91
2022-10-28T09:28:50.470Z,93.87
2022-10-28T09:29:53.847Z,93.87
2022-10-28T09:30:57.119Z,94.41
2022-10-28T09:32:02.376Z,94.07
2022-10-28T09:33:06.152Z,94.17
2022-10-28T09:34:10.258Z,94.70
2022-10-28T09:35:14.051Z,94.33
2022-10-28T09:36:17.474Z,94.89
2022-10-28T09:37:22.262Z,94.37
2022-10-28T09:38:25.410Z,94.58
2022-10-28T09:39:29.249Z,94.91
2022-10-28T09:40:32.550Z,94.67
2022-10-28T09:41:40.115Z,95.13
2022-10-28T09:42:44.240Z,95.31
2022-10-28T09:43:47.496Z,95.51
2022-10-28T09:44:51.284Z,95.83
2022-10-28T09:45:54.994Z,95.80
2022-10-28T09:46:58.826Z,96.45
2022-10-28T09:48:17.946Z,96.00
2022-10-28T09:49:21.640Z,96.63
2022-10-28T09:50:32.634Z,96.91
2022-10-28T09:51:37.614Z,96.16
2022-10-28T09:52:41.085Z,96.96
2022-10-28T09:55:08.775Z,96.96
2022-10-28T09:56:12.924Z,97.32
2022-10-28T09:57:17.506Z,97.18
2022-10-28T09:58:24.562Z,97.26
2022-10-28T09:59:28.480Z,97.52
2022-10-28T10:00:32.063Z,97.67
2022-10-28T10:01:36.493Z,97.80
2022-10-28T10:02:40.029Z,98.16
2022-10-28T10:03:44.586Z,98.16
2022-10-28T10:04:48.278Z,98.11
2022-10-28T10:05:51.353Z,98.34
2022-10-28T10:06:54.422Z,98.08
2022-10-28T10:08:00.780Z,98.14
2022-10-28T10:10:24.455Z,98.59
2022-10-28T10:11:27.744Z,98.74
2022-10-28T10:12:32.966Z,98.82
2022-10-28T10:13:36.979Z,99.27
2022-10-28T10:14:40.249Z,99.23
2022-10-28T10:15:43.954Z,99.56
2022-10-28T10:16:47.529Z,99.58
2022-10-28T10:17:56.253Z,99.38
2022-10-28T10:19:02.723Z,99.61
2022-10-28T10:20:05.778Z,99.60
2022-10-28T10:21:10.192Z,99.45
2022-10-28T10:22:15.621Z,99.46
2022-10-28T10:24:39.710Z,99.63
2022-10-28T10:25:43.712Z,100.00
2022-10-28T10:26:47.108Z,100.00
2022-10-28T10:27:59.901Z,99.78
2022-10-28T10:30:24.252Z,100.00
2022-10-28T10:31:29.624Z,100.00
2022-10-28T10:32:33.513Z,100.00
2022-10-28T10:33:37.414Z,100.00
2022-10-28T10:34:43.678Z,100.00
2022-10-28T10:35:47.265Z,100.00
2022-10-28T10:38:17.017Z,100.00
2022-10-28T10:39:20.478Z,100.00
2022-10-28T10:40:24.667Z,100.00
2022-10-28T10:41:28.070Z,100.00
2022-10-28T10:42:32.065Z,99.72
2022-10-28T10:43:38.100Z,99.86
2022-10-28T10:44:41.902Z,99.65
2022-10-28T10:45:45.590Z,99.60
2022-10-28T10:46:49.393Z,99.86
2022-10-28T10:47:53.208Z,100.00
2022-10-28T10:48:56.889Z,99.87
2022-10-28T10:50:00.482Z,100.00
2022-10-28T10:51:03.859Z,100.00
2022-10-28T10:52:08.783Z,99.93
2022-10-28T10:53:12.798Z,100.00
2022-10-28T10:54:16.088Z,99.90
2022-10-28T10:55:20.580Z,100.00
2022-10-28T10:56:24.370Z,100.00
2022-10-28T10:57:28.387Z,100.00
2022-10-28T10:58:32.189Z,100.00
2022-10-28T10:59:36.181Z,100.00
2022-10-28T11:00:39.567Z,99.99
2022-10-28T11:01:43.567Z,100.00
2022-10-28T11:02:49.017Z,100.00
2022-10-28T11:03:51.962Z,100.00
2022-10-28T11:04:56.303Z,100.00
2022-10-28T11:07:07.973Z,100.00
2022-10-28T11:08:11.683Z,100.00
2022-10-28T11:09:15.259Z,100.00
2022-10-28T11:10:18.863Z,100.00
2022-10-28T11:11:21.960Z,100.00
2022-10-28T11:12:26.030Z,100.00
2022-10-28T11:13:31.165Z,100.00
2022-10-28T11:14:34.867Z,100.00
2022-10-28T11:15:38.438Z,100.00
2022-10-28T11:18:02.473Z,100.00
2022-10-28T11:19:06.942Z,100.00
2022-10-28T11:20:13.465Z,100.00
2022-10-28T11:21:16.812Z,100.00
2022-10-28T11:22:22.832Z,100.00
2022-10-28T11:23:26.633Z,100.00
2022-10-28T11:24:33.918Z,100.00
2022-10-28T11:25:37.708Z,100.00
2022-10-28T11:26:41.904Z,100.00
2022-10-28T11:29:09.992Z,100.00
2022-10-28T11:33:30.137Z,100.00
2022-10-28T11:35:51.505Z,100.00
2022-10-28T11:36:55.189Z,100.00
2022-10-28T11:37:58.580Z,100.00
2022-10-28T11:39:02.731Z,100.00
2022-10-28T11:40:14.738Z,100.00
2022-10-28T11:41:22.153Z,100.00
2022-10-28T11:42:25.552Z,100.00
2022-10-28T11:43:47.727Z,100.00
2022-10-28T11:44:54.745Z,100.00
2022-10-28T11:46:10.014Z,100.00
2022-10-28T11:53:04.520Z,100.00
2022-10-28T11:54:07.916Z,100.00
2022-10-28T11:55:22.705Z,100.00
2022-10-28T11:56:31.780Z,100.00
2022-10-28T11:57:35.584Z,100.00
2022-10-28T11:58:41.860Z,100.00
2022-10-28T11:59:45.952Z,100.00
2022-10-28T12:02:21.656Z,100.00
2022-10-28T12:03:34.507Z,100.00
2022-10-28T12:04:38.497Z,100.00
2022-10-28T12:05:42.822Z,100.00
2022-10-28T12:07:03.915Z,100.00
2022-10-28T12:08:11.803Z,100.00
2022-10-28T12:09:14.743Z,100.00
2022-10-28T12:10:18.679Z,100.00
2022-10-28T12:11:23.591Z,100.00
2022-10-28T12:12:29.601Z,100.00
2022-10-28T12:13:43.069Z,100.00
2022-10-28T12:14:47.385Z,100.00
2022-10-28T12:15:50.999Z,100.00
2022-10-28T12:16:54.563Z,100.00
2022-10-28T12:18:06.298Z,100.00
2022-10-28T12:20:31.169Z,100.00
2022-10-28T12:22:39.117Z,100.00
2022-10-28T12:23:45.836Z,100.00
2022-10-28T12:24:49.372Z,100.00
2022-10-28T12:25:52.987Z,100.00
2022-10-28T12:27:02.324Z,100.00
2022-10-28T12:28:07.411Z,100.00
2022-10-28T12:29:10.827Z,100.00
2022-10-28T12:30:14.247Z,100.00
2022-10-28T12:31:17.063Z,100.00
2022-10-28T12:32:21.297Z,100.00
2022-10-28T12:33:25.512Z,100.00
2022-10-28T12:34:29.261Z,100.00
2022-10-28T12:35:32.690Z,100.00
2022-10-28T12:36:35.668Z,100.00
2022-10-28T12:37:39.630Z,100.00
2022-10-28T12:38:43.781Z,100.00
2022-10-28T12:39:47.256Z,100.00
2022-10-28T12:40:50.965Z,100.00
2022-10-28T12:41:54.140Z,100.00
2022-10-28T12:42:58.855Z,100.00
2022-10-28T12:44:03.467Z,100.00
2022-10-28T12:46:27.362Z,100.00
2022-10-28T12:47:30.856Z,100.00
2022-10-28T12:48:38.728Z,100.00
2022-10-28T12:49:41.601Z,100.00
2022-10-28T12:50:44.985Z,100.00
2022-10-28T12:51:48.667Z,100.00
2022-10-28T12:52:52.670Z,100.00
2022-10-28T12:53:56.669Z,100.00
2022-10-28T12:56:20.852Z,100.00
2022-10-28T12:57:24.755Z,100.00
2022-10-28T12:58:27.737Z,100.00
2022-10-28T12:59:31.429Z,100.00
2022-10-28T13:00:35.029Z,100.00
2022-10-28T13:01:38.247Z,100.00
2022-10-28T13:02:41.998Z,100.00
2022-10-28T13:03:44.959Z,100.00
2022-10-28T13:04:50.455Z,100.00
2022-10-28T13:05:53.792Z,100.00
2022-10-28T13:06:57.198Z,100.00
2022-10-28T13:08:01.310Z,100.00
2022-10-28T13:09:04.877Z,100.00
2022-10-28T13:10:08.744Z,100.00
2022-10-28T13:11:12.567Z,100.00
2022-10-28T13:12:16.255Z,100.00
2022-10-28T13:13:25.146Z,100.00
2022-10-28T13:14:28.465Z,100.00
2022-10-28T13:15:32.362Z,100.00
2022-10-28T13:16:36.162Z,100.00
2022-10-28T13:17:40.475Z,100.00
2022-10-28T13:18:43.952Z,100.00
2022-10-28T13:20:03.534Z,100.00
2022-10-28T13:21:07.250Z,100.00
2022-10-28T13:22:11.828Z,100.00
2022-10-28T13:23:15.930Z,100.00
2022-10-28T13:24:24.871Z,100.00
2022-10-28T13:25:28.145Z,100.00
2022-10-28T13:26:31.521Z,100.00
2022-10-28T13:28:39.948Z,100.00
2022-10-28T13:29:43.543Z,100.00
2022-10-28T13:30:47.222Z,100.00
2022-10-28T13:31:51.114Z,100.00
2022-10-28T13:32:54.909Z,100.00
2022-10-28T13:33:58.311Z,100.00
2022-10-28T13:35:01.515Z,100.00
2022-10-28T13:36:05.274Z,100.00
2022-10-28T13:37:09.717Z,100.00
2022-10-28T13:38:13.174Z,100.00
2022-10-28T13:39:16.963Z,100.00
2022-10-28T13:40:19.716Z,100.00
2022-10-28T13:41:22.826Z,100.00
2022-10-28T13:42:26.626Z,100.00
2022-10-28T13:43:29.180Z,100.00
2022-10-28T13:44:33.087Z,100.00
2022-10-28T13:46:57.059Z,100.00
2022-10-28T13:48:00.558Z,100.00
2022-10-28T13:49:05.519Z,100.00
2022-10-28T13:50:09.255Z,100.00
2022-10-28T13:51:12.973Z,100.00
2022-10-28T13:52:17.398Z,100.00
2022-10-28T13:53:21.377Z,100.00
2022-10-28T13:54:24.775Z,100.00
2022-10-28T13:55:27.982Z,100.00
2022-10-28T13:56:31.235Z,100.00
2022-10-28T13:57:35.339Z,100.00
2022-10-28T13:58:38.719Z,100.00
2022-10-28T13:59:42.815Z,100.00
2022-10-28T14:00:49.112Z,100.00
2022-10-28T14:02:01.932Z,100.00
2022-10-28T14:02:56.882Z,100.00
2022-10-28T14:04:11.325Z,100.00
2022-10-28T14:05:14.818Z,100.00
2022-10-28T14:06:18.555Z,100.00
2022-10-28T14:07:22.409Z,100.00
2022-10-28T14:08:25.992Z,100.00
2022-10-28T14:09:29.592Z,100.00
2022-10-28T14:10:32.862Z,100.00
2022-10-28T14:11:36.151Z,100.00
2022-10-28T14:12:40.178Z,100.00
2022-10-28T14:13:44.905Z,100.00
2022-10-28T14:14:48.674Z,100.00
2022-10-28T14:15:52.897Z,100.00